This is the latest recevied weather packets stored in our database for station/object KC9ZAR-13. If no packets are shown the sender has not sent any weather packets the latest 10 day(s).
| Time | Temp. | Humidity | Pressure | Rain* | Wind** | Luminosity | Snow |
|---|---|---|---|---|---|---|---|
| 1777766106 | 13.33° C | 42% | 1015.9 hPa | 0 mm | - | 0 W/m² | - |
| 1777765205 | 13.33° C | 44% | 1015.8 hPa | 0 mm | - | 0 W/m² | - |
| 1777764606 | 13.33° C | 43% | 1016 hPa | 0 mm | - | 0 W/m² | - |
| 1777764305 | 13.89° C | 42% | 1016 hPa | 0 mm | - | 0 W/m² | - |
| 1777763705 | 14.44° C | 39% | 1015.9 hPa | 0 mm | - | 0 W/m² | - |
| 1777763106 | 14.44° C | 40% | 1016 hPa | 0 mm | - | 0 W/m² | - |
| 1777762506 | 14.44° C | 42% | 1015.9 hPa | 0 mm | - | 0 W/m² | - |
| 1777758006 | 15° C | 42% | 1015.6 hPa | 0 mm | - | 0 W/m² | - |
| 1777756206 | 15° C | 47% | 1015.6 hPa | 0 mm | - | 0 W/m² | - |
| 1777752905 | 13.33° C | 52% | 1016.1 hPa | 0 mm | - | 0 W/m² | - |
| 1777752606 | 13.33° C | 52% | 1016.1 hPa | 0 mm | - | 0 W/m² | - |
| 1777751705 | 13.33° C | 53% | 1016.2 hPa | 0 mm | - | 0 W/m² | - |
| 1777751105 | 13.33° C | 52% | 1016.2 hPa | 0 mm | - | 0 W/m² | - |
| 1777750806 | 13.33° C | 53% | 1016.2 hPa | 0 mm | - | 0 W/m² | - |
| 1777749905 | 13.33° C | 52% | 1016.3 hPa | 0 mm | - | 0 W/m² | - |
| 1777749305 | 13.33° C | 54% | 1016.5 hPa | 0 mm | - | 0 W/m² | - |
| 1777749005 | 13.33° C | 54% | 1016.4 hPa | 0 mm | - | 0 W/m² | - |
| 1777747505 | 13.89° C | 55% | 1016.5 hPa | 0 mm | - | 0 W/m² | - |
| 1777744806 | 13.33° C | 62% | 1016.7 hPa | 0 mm | - | 0 W/m² | - |
| 1777742105 | 11.67° C | 65% | 1017.5 hPa | 0 mm | - | 0 W/m² | - |
| 1777740905 | 11.11° C | 66% | 1017.5 hPa | 0 mm | - | 0 W/m² | - |
| 1777740005 | 10.56° C | 68% | 1017.6 hPa | 0 mm | - | 0 W/m² | - |
| 1777736705 | 8.89° C | 74% | 1017.7 hPa | 0 mm | - | 0 W/m² | - |
| 1777734905 | 8.89° C | 76% | 1017.6 hPa | 0 mm | - | 0 W/m² | - |
| 1777734605 | 8.89° C | 77% | 1017.6 hPa | 0 mm | - | 0 W/m² | - |
* Rain latest hour (hover to see other rain measurements)
** Current wind speed in m/s (hover to see current wind gust speed)